sensor_id;sensor_type;location;lat;lon;timestamp;temperature;humidity
31735;DHT22;18313;48.518;9.124;2023-04-03T00:00:43;4.20;99.90
31735;DHT22;18313;48.518;9.124;2023-04-03T00:03:11;4.20;99.90
31735;DHT22;18313;48.518;9.124;2023-04-03T00:05:38;4.20;99.90
31735;DHT22;18313;48.518;9.124;2023-04-03T00:08:06;4.10;99.90
31735;DHT22;18313;48.518;9.124;2023-04-03T00:10:35;4.10;99.90
31735;DHT22;18313;48.518;9.124;2023-04-03T00:13:04;4.10;99.90
31735;DHT22;18313;48.518;9.124;2023-04-03T00:15:32;4.10;99.90
31735;DHT22;18313;48.518;9.124;2023-04-03T00:17:59;4.00;99.90
31735;DHT22;18313;48.518;9.124;2023-04-03T00:20:27;4.00;99.90
31735;DHT22;18313;48.518;9.124;2023-04-03T00:22:54;4.10;99.90
31735;DHT22;18313;48.518;9.124;2023-04-03T00:25:22;4.10;99.90
31735;DHT22;18313;48.518;9.124;2023-04-03T00:27:49;4.10;99.90
31735;DHT22;18313;48.518;9.124;2023-04-03T00:30:18;4.00;99.90
31735;DHT22;18313;48.518;9.124;2023-04-03T00:32:52;4.00;99.90
31735;DHT22;18313;48.518;9.124;2023-04-03T00:35:20;4.00;99.90
31735;DHT22;18313;48.518;9.124;2023-04-03T00:37:50;4.00;99.90
31735;DHT22;18313;48.518;9.124;2023-04-03T00:40:18;4.10;99.90
31735;DHT22;18313;48.518;9.124;2023-04-03T00:42:47;4.00;99.90
31735;DHT22;18313;48.518;9.124;2023-04-03T00:47:45;3.90;99.90
31735;DHT22;18313;48.518;9.124;2023-04-03T00:50:12;3.80;99.90
31735;DHT22;18313;48.518;9.124;2023-04-03T00:52:40;3.80;99.90
31735;DHT22;18313;48.518;9.124;2023-04-03T00:55:08;3.80;99.90
31735;DHT22;18313;48.518;9.124;2023-04-03T00:57:37;3.80;99.90
31735;DHT22;18313;48.518;9.124;2023-04-03T01:00:08;3.80;99.90
31735;DHT22;18313;48.518;9.124;2023-04-03T01:02:39;3.80;99.90
31735;DHT22;18313;48.518;9.124;2023-04-03T01:05:08;3.70;99.90
31735;DHT22;18313;48.518;9.124;2023-04-03T01:07:35;3.70;99.90
31735;DHT22;18313;48.518;9.124;2023-04-03T01:10:07;3.60;99.90
31735;DHT22;18313;48.518;9.124;2023-04-03T01:12:40;3.60;99.90
31735;DHT22;18313;48.518;9.124;2023-04-03T01:15:24;3.60;99.90
31735;DHT22;18313;48.518;9.124;2023-04-03T01:17:57;3.60;99.90
31735;DHT22;18313;48.518;9.124;2023-04-03T01:25:43;3.50;99.90
31735;DHT22;18313;48.518;9.124;2023-04-03T01:28:16;3.50;99.90
31735;DHT22;18313;48.518;9.124;2023-04-03T01:33:21;3.50;99.90
31735;DHT22;18313;48.518;9.124;2023-04-03T01:35:48;3.40;99.90
31735;DHT22;18313;48.518;9.124;2023-04-03T01:38:15;3.40;99.90
31735;DHT22;18313;48.518;9.124;2023-04-03T01:40:42;3.40;99.90
31735;DHT22;18313;48.518;9.124;2023-04-03T01:43:10;3.40;99.90
31735;DHT22;18313;48.518;9.124;2023-04-03T01:45:37;3.40;99.90
31735;DHT22;18313;48.518;9.124;2023-04-03T01:48:04;3.50;99.90
31735;DHT22;18313;48.518;9.124;2023-04-03T01:50:32;3.50;99.90
31735;DHT22;18313;48.518;9.124;2023-04-03T01:52:59;3.50;99.90
31735;DHT22;18313;48.518;9.124;2023-04-03T01:55:27;3.50;99.90
31735;DHT22;18313;48.518;9.124;2023-04-03T01:57:54;3.50;99.90
31735;DHT22;18313;48.518;9.124;2023-04-03T02:00:21;3.50;99.90
31735;DHT22;18313;48.518;9.124;2023-04-03T02:02:49;3.40;99.90
31735;DHT22;18313;48.518;9.124;2023-04-03T02:05:17;3.50;99.90
31735;DHT22;18313;48.518;9.124;2023-04-03T02:07:44;3.50;99.90
31735;DHT22;18313;48.518;9.124;2023-04-03T02:10:12;3.60;99.90
31735;DHT22;18313;48.518;9.124;2023-04-03T02:12:39;3.50;99.90
31735;DHT22;18313;48.518;9.124;2023-04-03T02:15:06;3.60;99.90
31735;DHT22;18313;48.518;9.124;2023-04-03T02:17:34;3.50;99.90
31735;DHT22;18313;48.518;9.124;2023-04-03T02:20:03;3.50;99.90
31735;DHT22;18313;48.518;9.124;2023-04-03T02:22:31;3.50;99.90
31735;DHT22;18313;48.518;9.124;2023-04-03T02:24:58;3.50;99.90
31735;DHT22;18313;48.518;9.124;2023-04-03T02:27:26;3.50;99.90
31735;DHT22;18313;48.518;9.124;2023-04-03T02:29:53;3.50;99.90
31735;DHT22;18313;48.518;9.124;2023-04-03T02:32:21;3.40;99.90
31735;DHT22;18313;48.518;9.124;2023-04-03T02:34:48;3.30;99.90
31735;DHT22;18313;48.518;9.124;2023-04-03T02:37:15;3.30;99.90
31735;DHT22;18313;48.518;9.124;2023-04-03T02:39:43;3.30;99.90
31735;DHT22;18313;48.518;9.124;2023-04-03T02:42:10;3.30;99.90
31735;DHT22;18313;48.518;9.124;2023-04-03T02:44:37;3.40;99.90
31735;DHT22;18313;48.518;9.124;2023-04-03T02:47:05;3.40;99.90
31735;DHT22;18313;48.518;9.124;2023-04-03T02:49:33;3.40;99.90
31735;DHT22;18313;48.518;9.124;2023-04-03T02:52:00;3.40;99.90
31735;DHT22;18313;48.518;9.124;2023-04-03T02:54:28;3.30;99.90
31735;DHT22;18313;48.518;9.124;2023-04-03T02:56:58;3.40;99.90
31735;DHT22;18313;48.518;9.124;2023-04-03T02:59:25;3.30;99.90
31735;DHT22;18313;48.518;9.124;2023-04-03T03:01:53;3.30;99.90
31735;DHT22;18313;48.518;9.124;2023-04-03T03:04:20;3.30;99.90
31735;DHT22;18313;48.518;9.124;2023-04-03T03:06:48;3.40;99.90
31735;DHT22;18313;48.518;9.124;2023-04-03T03:09:15;3.40;99.90
31735;DHT22;18313;48.518;9.124;2023-04-03T03:11:42;3.40;99.90
31735;DHT22;18313;48.518;9.124;2023-04-03T03:14:09;3.30;99.90
31735;DHT22;18313;48.518;9.124;2023-04-03T03:16:36;3.30;99.90
31735;DHT22;18313;48.518;9.124;2023-04-03T03:19:04;3.20;99.90
31735;DHT22;18313;48.518;9.124;2023-04-03T03:21:31;3.20;99.90
31735;DHT22;18313;48.518;9.124;2023-04-03T03:23:58;3.20;99.90
31735;DHT22;18313;48.518;9.124;2023-04-03T03:26:26;3.20;99.90
31735;DHT22;18313;48.518;9.124;2023-04-03T03:28:53;3.20;99.90
31735;DHT22;18313;48.518;9.124;2023-04-03T03:31:21;3.10;99.90
31735;DHT22;18313;48.518;9.124;2023-04-03T03:33:48;3.10;99.90
31735;DHT22;18313;48.518;9.124;2023-04-03T03:36:15;3.10;99.90
31735;DHT22;18313;48.518;9.124;2023-04-03T03:38:43;3.10;99.90
31735;DHT22;18313;48.518;9.124;2023-04-03T03:41:10;3.10;99.90
31735;DHT22;18313;48.518;9.124;2023-04-03T03:43:37;3.10;99.90
31735;DHT22;18313;48.518;9.124;2023-04-03T03:46:04;3.10;99.90
31735;DHT22;18313;48.518;9.124;2023-04-03T03:48:31;3.10;99.90
31735;DHT22;18313;48.518;9.124;2023-04-03T03:50:59;3.10;99.90
31735;DHT22;18313;48.518;9.124;2023-04-03T03:53:26;3.10;99.90
31735;DHT22;18313;48.518;9.124;2023-04-03T03:55:53;3.10;99.90
31735;DHT22;18313;48.518;9.124;2023-04-03T03:58:20;3.10;99.90
31735;DHT22;18313;48.518;9.124;2023-04-03T04:00:48;3.10;99.90
31735;DHT22;18313;48.518;9.124;2023-04-03T04:03:15;3.10;99.90
31735;DHT22;18313;48.518;9.124;2023-04-03T04:05:43;3.10;99.90
31735;DHT22;18313;48.518;9.124;2023-04-03T04:08:10;3.10;99.90
31735;DHT22;18313;48.518;9.124;2023-04-03T04:10:37;3.10;99.90
31735;DHT22;18313;48.518;9.124;2023-04-03T04:13:05;3.00;99.90
31735;DHT22;18313;48.518;9.124;2023-04-03T04:15:32;3.00;99.90
31735;DHT22;18313;48.518;9.124;2023-04-03T04:17:59;3.00;99.90
31735;DHT22;18313;48.518;9.124;2023-04-03T04:20:27;3.10;99.90
31735;DHT22;18313;48.518;9.124;2023-04-03T04:22:54;3.10;99.90
31735;DHT22;18313;48.518;9.124;2023-04-03T04:25:22;3.10;99.90
31735;DHT22;18313;48.518;9.124;2023-04-03T04:27:49;3.10;99.90
31735;DHT22;18313;48.518;9.124;2023-04-03T04:30:16;3.10;99.90
31735;DHT22;18313;48.518;9.124;2023-04-03T04:32:43;3.10;99.90
31735;DHT22;18313;48.518;9.124;2023-04-03T04:35:11;3.10;99.90
31735;DHT22;18313;48.518;9.124;2023-04-03T04:37:42;3.20;99.90
31735;DHT22;18313;48.518;9.124;2023-04-03T04:40:09;3.20;99.90
31735;DHT22;18313;48.518;9.124;2023-04-03T04:42:37;3.20;99.90
31735;DHT22;18313;48.518;9.124;2023-04-03T04:45:05;3.20;99.90
31735;DHT22;18313;48.518;9.124;2023-04-03T04:47:32;3.20;99.90
31735;DHT22;18313;48.518;9.124;2023-04-03T04:50:00;3.20;99.90
31735;DHT22;18313;48.518;9.124;2023-04-03T04:52:27;3.20;99.90
31735;DHT22;18313;48.518;9.124;2023-04-03T04:54:55;3.20;99.90
31735;DHT22;18313;48.518;9.124;2023-04-03T04:57:22;3.20;99.90
31735;DHT22;18313;48.518;9.124;2023-04-03T04:59:51;3.20;99.90
31735;DHT22;18313;48.518;9.124;2023-04-03T05:02:18;3.30;99.90
31735;DHT22;18313;48.518;9.124;2023-04-03T05:04:46;3.20;99.90
31735;DHT22;18313;48.518;9.124;2023-04-03T05:07:14;3.30;99.90
31735;DHT22;18313;48.518;9.124;2023-04-03T05:09:41;3.30;99.90
31735;DHT22;18313;48.518;9.124;2023-04-03T05:12:09;3.30;99.90
31735;DHT22;18313;48.518;9.124;2023-04-03T05:14:37;3.30;99.90
31735;DHT22;18313;48.518;9.124;2023-04-03T05:17:05;3.20;99.90
31735;DHT22;18313;48.518;9.124;2023-04-03T05:19:32;3.20;99.90
31735;DHT22;18313;48.518;9.124;2023-04-03T05:22:00;3.20;99.90
31735;DHT22;18313;48.518;9.124;2023-04-03T05:24:27;3.20;99.90
31735;DHT22;18313;48.518;9.124;2023-04-03T05:26:54;3.30;99.90
31735;DHT22;18313;48.518;9.124;2023-04-03T05:29:22;3.30;99.90
31735;DHT22;18313;48.518;9.124;2023-04-03T05:31:52;3.40;99.90
31735;DHT22;18313;48.518;9.124;2023-04-03T05:34:19;3.40;99.90
31735;DHT22;18313;48.518;9.124;2023-04-03T05:36:46;3.40;99.90
31735;DHT22;18313;48.518;9.124;2023-04-03T05:39:14;3.40;99.90
31735;DHT22;18313;48.518;9.124;2023-04-03T05:41:41;3.50;99.90
31735;DHT22;18313;48.518;9.124;2023-04-03T05:44:08;3.40;99.90
31735;DHT22;18313;48.518;9.124;2023-04-03T05:46:36;3.40;99.90
31735;DHT22;18313;48.518;9.124;2023-04-03T05:49:03;3.40;99.90
31735;DHT22;18313;48.518;9.124;2023-04-03T05:51:34;3.40;99.90
31735;DHT22;18313;48.518;9.124;2023-04-03T05:54:26;3.50;99.90
31735;DHT22;18313;48.518;9.124;2023-04-03T05:56:55;3.50;99.90
31735;DHT22;18313;48.518;9.124;2023-04-03T05:59:22;3.50;99.90
31735;DHT22;18313;48.518;9.124;2023-04-03T06:01:51;3.60;99.90
31735;DHT22;18313;48.518;9.124;2023-04-03T06:04:19;3.70;99.90
31735;DHT22;18313;48.518;9.124;2023-04-03T06:06:52;3.70;99.90
31735;DHT22;18313;48.518;9.124;2023-04-03T06:09:23;3.70;99.90
31735;DHT22;18313;48.518;9.124;2023-04-03T06:11:50;3.80;99.90
31735;DHT22;18313;48.518;9.124;2023-04-03T06:14:19;3.80;99.90
31735;DHT22;18313;48.518;9.124;2023-04-03T06:16:46;3.90;99.90
31735;DHT22;18313;48.518;9.124;2023-04-03T06:19:14;4.00;99.90
31735;DHT22;18313;48.518;9.124;2023-04-03T06:21:41;3.90;99.90
31735;DHT22;18313;48.518;9.124;2023-04-03T06:24:09;4.00;99.90
31735;DHT22;18313;48.518;9.124;2023-04-03T06:26:36;4.00;99.90
31735;DHT22;18313;48.518;9.124;2023-04-03T06:29:04;4.00;99.90
31735;DHT22;18313;48.518;9.124;2023-04-03T06:31:31;3.90;99.90
31735;DHT22;18313;48.518;9.124;2023-04-03T06:33:58;4.00;99.90
31735;DHT22;18313;48.518;9.124;2023-04-03T06:36:26;3.90;99.90
31735;DHT22;18313;48.518;9.124;2023-04-03T06:38:53;3.80;99.90
31735;DHT22;18313;48.518;9.124;2023-04-03T06:41:20;3.70;99.90
31735;DHT22;18313;48.518;9.124;2023-04-03T06:43:48;3.60;99.90
31735;DHT22;18313;48.518;9.124;2023-04-03T06:46:20;3.70;99.90
31735;DHT22;18313;48.518;9.124;2023-04-03T06:48:48;3.80;99.90
31735;DHT22;18313;48.518;9.124;2023-04-03T06:51:26;3.80;99.90
31735;DHT22;18313;48.518;9.124;2023-04-03T06:53:55;3.90;99.90
31735;DHT22;18313;48.518;9.124;2023-04-03T06:56:23;3.90;99.90
31735;DHT22;18313;48.518;9.124;2023-04-03T06:58:51;4.00;99.90
31735;DHT22;18313;48.518;9.124;2023-04-03T07:01:18;4.10;99.90
31735;DHT22;18313;48.518;9.124;2023-04-03T07:03:48;4.20;99.90
31735;DHT22;18313;48.518;9.124;2023-04-03T07:06:17;4.20;99.90
31735;DHT22;18313;48.518;9.124;2023-04-03T07:08:45;4.10;99.90
31735;DHT22;18313;48.518;9.124;2023-04-03T07:11:13;3.90;99.90
31735;DHT22;18313;48.518;9.124;2023-04-03T07:13:40;3.80;99.90
31735;DHT22;18313;48.518;9.124;2023-04-03T07:16:08;3.90;99.90
31735;DHT22;18313;48.518;9.124;2023-04-03T07:18:36;4.00;99.90
31735;DHT22;18313;48.518;9.124;2023-04-03T07:21:04;4.00;99.90
31735;DHT22;18313;48.518;9.124;2023-04-03T07:23:31;4.10;99.90
31735;DHT22;18313;48.518;9.124;2023-04-03T07:25:59;4.20;99.90
31735;DHT22;18313;48.518;9.124;2023-04-03T07:28:26;4.30;99.90
31735;DHT22;18313;48.518;9.124;2023-04-03T07:30:59;4.30;99.90
31735;DHT22;18313;48.518;9.124;2023-04-03T07:33:26;4.40;99.90
31735;DHT22;18313;48.518;9.124;2023-04-03T07:35:53;4.50;99.90
31735;DHT22;18313;48.518;9.124;2023-04-03T07:38:21;4.60;99.90
31735;DHT22;18313;48.518;9.124;2023-04-03T07:40:50;4.50;99.90
31735;DHT22;18313;48.518;9.124;2023-04-03T07:43:17;4.50;99.90
31735;DHT22;18313;48.518;9.124;2023-04-03T07:45:44;4.40;99.90
31735;DHT22;18313;48.518;9.124;2023-04-03T07:48:12;4.50;99.90
31735;DHT22;18313;48.518;9.124;2023-04-03T07:50:40;4.70;99.90
31735;DHT22;18313;48.518;9.124;2023-04-03T07:53:08;4.80;99.90
31735;DHT22;18313;48.518;9.124;2023-04-03T07:55:35;4.90;99.90
31735;DHT22;18313;48.518;9.124;2023-04-03T07:58:10;4.90;99.90
31735;DHT22;18313;48.518;9.124;2023-04-03T08:00:38;4.90;99.90
31735;DHT22;18313;48.518;9.124;2023-04-03T08:03:06;5.10;99.90
31735;DHT22;18313;48.518;9.124;2023-04-03T08:05:38;5.20;99.90
31735;DHT22;18313;48.518;9.124;2023-04-03T08:08:07;5.20;99.90
31735;DHT22;18313;48.518;9.124;2023-04-03T08:10:35;5.20;99.90
31735;DHT22;18313;48.518;9.124;2023-04-03T08:13:02;5.10;99.90
31735;DHT22;18313;48.518;9.124;2023-04-03T08:15:30;5.20;99.90
31735;DHT22;18313;48.518;9.124;2023-04-03T08:17:58;5.20;99.90
31735;DHT22;18313;48.518;9.124;2023-04-03T08:20:26;5.10;99.90
31735;DHT22;18313;48.518;9.124;2023-04-03T08:22:53;5.20;99.90
31735;DHT22;18313;48.518;9.124;2023-04-03T08:25:21;5.20;99.90
31735;DHT22;18313;48.518;9.124;2023-04-03T08:27:49;5.20;99.90
31735;DHT22;18313;48.518;9.124;2023-04-03T08:30:16;5.30;99.90
31735;DHT22;18313;48.518;9.124;2023-04-03T08:32:43;5.50;99.90
31735;DHT22;18313;48.518;9.124;2023-04-03T08:35:11;5.70;99.90
31735;DHT22;18313;48.518;9.124;2023-04-03T08:37:39;5.80;99.90
31735;DHT22;18313;48.518;9.124;2023-04-03T08:40:11;5.70;99.90
31735;DHT22;18313;48.518;9.124;2023-04-03T08:43:23;5.60;99.90
31735;DHT22;18313;48.518;9.124;2023-04-03T08:45:59;5.60;99.90
31735;DHT22;18313;48.518;9.124;2023-04-03T08:48:31;5.60;99.90
31735;DHT22;18313;48.518;9.124;2023-04-03T08:51:03;5.50;99.90
31735;DHT22;18313;48.518;9.124;2023-04-03T08:53:41;5.50;99.90
31735;DHT22;18313;48.518;9.124;2023-04-03T08:56:10;5.60;99.90
31735;DHT22;18313;48.518;9.124;2023-04-03T08:58:55;5.60;99.90
31735;DHT22;18313;48.518;9.124;2023-04-03T09:01:38;5.60;99.90
31735;DHT22;18313;48.518;9.124;2023-04-03T09:04:14;5.70;99.90
31735;DHT22;18313;48.518;9.124;2023-04-03T09:06:45;5.90;99.90
31735;DHT22;18313;48.518;9.124;2023-04-03T09:09:41;5.90;99.90
31735;DHT22;18313;48.518;9.124;2023-04-03T09:12:25;5.80;99.90
31735;DHT22;18313;48.518;9.124;2023-04-03T09:14:57;5.90;99.90
31735;DHT22;18313;48.518;9.124;2023-04-03T09:17:41;5.90;99.90
31735;DHT22;18313;48.518;9.124;2023-04-03T09:20:46;5.80;99.90
31735;DHT22;18313;48.518;9.124;2023-04-03T09:23:36;5.80;99.90
31735;DHT22;18313;48.518;9.124;2023-04-03T09:26:09;5.80;99.90
31735;DHT22;18313;48.518;9.124;2023-04-03T09:28:39;5.80;99.90
31735;DHT22;18313;48.518;9.124;2023-04-03T09:31:24;5.80;99.90
31735;DHT22;18313;48.518;9.124;2023-04-03T09:34:01;5.70;99.90
31735;DHT22;18313;48.518;9.124;2023-04-03T09:36:47;6.00;99.90
31735;DHT22;18313;48.518;9.124;2023-04-03T09:39:20;6.20;99.90
31735;DHT22;18313;48.518;9.124;2023-04-03T09:42:02;6.40;99.90
31735;DHT22;18313;48.518;9.124;2023-04-03T09:44:37;6.50;99.90
31735;DHT22;18313;48.518;9.124;2023-04-03T09:47:25;6.30;99.90
31735;DHT22;18313;48.518;9.124;2023-04-03T09:52:43;6.60;99.90
31735;DHT22;18313;48.518;9.124;2023-04-03T09:55:27;6.80;99.90
31735;DHT22;18313;48.518;9.124;2023-04-03T09:58:04;6.80;99.90
31735;DHT22;18313;48.518;9.124;2023-04-03T10:00:35;6.90;99.90
31735;DHT22;18313;48.518;9.124;2023-04-03T10:03:04;6.80;99.90
31735;DHT22;18313;48.518;9.124;2023-04-03T10:05:42;6.40;99.90
31735;DHT22;18313;48.518;9.124;2023-04-03T10:10:45;6.30;99.90
31735;DHT22;18313;48.518;9.124;2023-04-03T10:13:18;6.20;99.90
31735;DHT22;18313;48.518;9.124;2023-04-03T10:15:56;6.00;99.90
31735;DHT22;18313;48.518;9.124;2023-04-03T10:21:44;6.20;99.90
31735;DHT22;18313;48.518;9.124;2023-04-03T10:24:34;6.30;99.90
31735;DHT22;18313;48.518;9.124;2023-04-03T10:27:32;6.40;99.90
31735;DHT22;18313;48.518;9.124;2023-04-03T10:30:19;6.70;99.90
31735;DHT22;18313;48.518;9.124;2023-04-03T10:33:01;6.70;99.90
31735;DHT22;18313;48.518;9.124;2023-04-03T10:36:02;6.90;99.90
31735;DHT22;18313;48.518;9.124;2023-04-03T10:44:53;6.60;99.90
31735;DHT22;18313;48.518;9.124;2023-04-03T10:50:43;6.40;99.90
31735;DHT22;18313;48.518;9.124;2023-04-03T10:56:01;6.90;99.90
31735;DHT22;18313;48.518;9.124;2023-04-03T10:58:36;6.80;99.20
31735;DHT22;18313;48.518;9.124;2023-04-03T11:01:14;6.70;99.00
31735;DHT22;18313;48.518;9.124;2023-04-03T11:03:47;6.70;99.60
31735;DHT22;18313;48.518;9.124;2023-04-03T11:06:18;6.90;99.80
31735;DHT22;18313;48.518;9.124;2023-04-03T11:09:05;7.00;98.80
31735;DHT22;18313;48.518;9.124;2023-04-03T11:11:38;7.10;98.90
31735;DHT22;18313;48.518;9.124;2023-04-03T11:14:21;7.10;99.00
31735;DHT22;18313;48.518;9.124;2023-04-03T11:19:35;6.60;98.80
31735;DHT22;18313;48.518;9.124;2023-04-03T11:22:22;7.00;98.30
31735;DHT22;18313;48.518;9.124;2023-04-03T11:27:50;7.50;98.00
31735;DHT22;18313;48.518;9.124;2023-04-03T11:33:08;7.40;97.50
31735;DHT22;18313;48.518;9.124;2023-04-03T11:35:46;7.40;97.90
31735;DHT22;18313;48.518;9.124;2023-04-03T11:38:33;7.10;96.90
31735;DHT22;18313;48.518;9.124;2023-04-03T11:41:05;6.60;98.20
31735;DHT22;18313;48.518;9.124;2023-04-03T11:43:35;6.50;98.10
31735;DHT22;18313;48.518;9.124;2023-04-03T11:46:07;6.40;97.20
31735;DHT22;18313;48.518;9.124;2023-04-03T11:53:47;6.60;97.40
31735;DHT22;18313;48.518;9.124;2023-04-03T12:04:24;6.50;99.20
31735;DHT22;18313;48.518;9.124;2023-04-03T12:07:12;6.60;98.00
31735;DHT22;18313;48.518;9.124;2023-04-03T12:12:40;6.90;98.20
31735;DHT22;18313;48.518;9.124;2023-04-03T12:15:38;6.80;97.00
31735;DHT22;18313;48.518;9.124;2023-04-03T12:18:40;6.70;98.10
31735;DHT22;18313;48.518;9.124;2023-04-03T12:21:09;6.80;97.60
31735;DHT22;18313;48.518;9.124;2023-04-03T12:26:31;6.70;96.90
31735;DHT22;18313;48.518;9.124;2023-04-03T12:29:27;6.40;97.20
31735;DHT22;18313;48.518;9.124;2023-04-03T12:35:34;6.30;97.50
31735;DHT22;18313;48.518;9.124;2023-04-03T12:41:27;6.60;97.80
31735;DHT22;18313;48.518;9.124;2023-04-03T12:46:45;7.10;96.20
31735;DHT22;18313;48.518;9.124;2023-04-03T12:49:26;6.80;96.80
31735;DHT22;18313;48.518;9.124;2023-04-03T12:51:57;6.60;97.10
31735;DHT22;18313;48.518;9.124;2023-04-03T12:54:26;6.80;97.40
31735;DHT22;18313;48.518;9.124;2023-04-03T12:57:16;6.90;97.60
31735;DHT22;18313;48.518;9.124;2023-04-03T12:59:43;7.20;97.20
31735;DHT22;18313;48.518;9.124;2023-04-03T13:02:31;7.30;98.20
31735;DHT22;18313;48.518;9.124;2023-04-03T13:05:07;7.50;96.50
31735;DHT22;18313;48.518;9.124;2023-04-03T13:07:36;7.50;96.90
31735;DHT22;18313;48.518;9.124;2023-04-03T13:12:46;7.60;95.90
31735;DHT22;18313;48.518;9.124;2023-04-03T13:15:18;7.60;96.20
31735;DHT22;18313;48.518;9.124;2023-04-03T13:17:46;7.40;95.80
31735;DHT22;18313;48.518;9.124;2023-04-03T13:20:29;7.20;96.80
31735;DHT22;18313;48.518;9.124;2023-04-03T13:23:04;7.10;96.70
31735;DHT22;18313;48.518;9.124;2023-04-03T13:25:34;6.90;96.90
31735;DHT22;18313;48.518;9.124;2023-04-03T13:28:04;6.90;96.70
31735;DHT22;18313;48.518;9.124;2023-04-03T13:30:40;6.90;96.20
31735;DHT22;18313;48.518;9.124;2023-04-03T13:33:23;7.00;96.70
31735;DHT22;18313;48.518;9.124;2023-04-03T13:36:02;7.00;96.50
31735;DHT22;18313;48.518;9.124;2023-04-03T13:38:33;6.90;96.30
31735;DHT22;18313;48.518;9.124;2023-04-03T13:41:21;7.00;97.10
31735;DHT22;18313;48.518;9.124;2023-04-03T13:43:49;7.20;96.50
31735;DHT22;18313;48.518;9.124;2023-04-03T13:46:26;7.40;96.40
31735;DHT22;18313;48.518;9.124;2023-04-03T13:48:56;7.50;96.80
31735;DHT22;18313;48.518;9.124;2023-04-03T13:51:28;7.50;95.70
31735;DHT22;18313;48.518;9.124;2023-04-03T13:54:01;7.60;95.90
31735;DHT22;18313;48.518;9.124;2023-04-03T13:56:39;7.90;96.50
31735;DHT22;18313;48.518;9.124;2023-04-03T14:01:46;7.80;95.00
31735;DHT22;18313;48.518;9.124;2023-04-03T14:04:29;7.70;95.30
31735;DHT22;18313;48.518;9.124;2023-04-03T14:06:56;7.40;95.50
31735;DHT22;18313;48.518;9.124;2023-04-03T14:09:26;7.40;96.20
31735;DHT22;18313;48.518;9.124;2023-04-03T14:11:59;7.50;95.50
31735;DHT22;18313;48.518;9.124;2023-04-03T14:14:31;7.50;96.10
31735;DHT22;18313;48.518;9.124;2023-04-03T14:17:01;7.50;95.10
31735;DHT22;18313;48.518;9.124;2023-04-03T14:19:34;7.50;95.10
31735;DHT22;18313;48.518;9.124;2023-04-03T14:22:26;7.50;95.30
31735;DHT22;18313;48.518;9.124;2023-04-03T14:24:55;7.60;94.30
31735;DHT22;18313;48.518;9.124;2023-04-03T14:27:26;7.70;95.50
31735;DHT22;18313;48.518;9.124;2023-04-03T14:29:55;7.80;95.10
31735;DHT22;18313;48.518;9.124;2023-04-03T14:32:24;7.70;95.40
31735;DHT22;18313;48.518;9.124;2023-04-03T14:34:52;7.70;95.80
31735;DHT22;18313;48.518;9.124;2023-04-03T14:37:23;7.60;95.00
31735;DHT22;18313;48.518;9.124;2023-04-03T14:39:51;7.60;95.20
31735;DHT22;18313;48.518;9.124;2023-04-03T14:42:23;7.60;95.60
31735;DHT22;18313;48.518;9.124;2023-04-03T14:44:52;7.70;95.10
31735;DHT22;18313;48.518;9.124;2023-04-03T14:47:22;7.60;95.10
31735;DHT22;18313;48.518;9.124;2023-04-03T14:49:59;7.50;95.10
31735;DHT22;18313;48.518;9.124;2023-04-03T14:52:33;7.30;95.00
31735;DHT22;18313;48.518;9.124;2023-04-03T14:55:02;7.10;95.40
31735;DHT22;18313;48.518;9.124;2023-04-03T14:57:30;7.20;95.90
31735;DHT22;18313;48.518;9.124;2023-04-03T14:59:57;7.20;95.10
31735;DHT22;18313;48.518;9.124;2023-04-03T15:04:57;7.00;95.10
31735;DHT22;18313;48.518;9.124;2023-04-03T15:07:27;7.00;95.10
31735;DHT22;18313;48.518;9.124;2023-04-03T15:09:55;6.90;94.40
31735;DHT22;18313;48.518;9.124;2023-04-03T15:12:25;6.80;94.80
31735;DHT22;18313;48.518;9.124;2023-04-03T15:14:52;6.90;95.40
31735;DHT22;18313;48.518;9.124;2023-04-03T15:17:29;7.10;94.50
31735;DHT22;18313;48.518;9.124;2023-04-03T15:19:56;7.20;95.90
31735;DHT22;18313;48.518;9.124;2023-04-03T15:22:25;7.20;94.60
31735;DHT22;18313;48.518;9.124;2023-04-03T15:24:52;7.20;94.80
31735;DHT22;18313;48.518;9.124;2023-04-03T15:27:20;7.40;94.10
31735;DHT22;18313;48.518;9.124;2023-04-03T15:29:47;7.40;93.80
31735;DHT22;18313;48.518;9.124;2023-04-03T15:32:14;7.50;95.60
31735;DHT22;18313;48.518;9.124;2023-04-03T15:34:41;7.40;93.90
31735;DHT22;18313;48.518;9.124;2023-04-03T15:37:08;7.30;94.30
31735;DHT22;18313;48.518;9.124;2023-04-03T15:39:35;7.20;94.30
31735;DHT22;18313;48.518;9.124;2023-04-03T15:42:03;7.10;94.60
31735;DHT22;18313;48.518;9.124;2023-04-03T15:44:34;7.00;95.30
31735;DHT22;18313;48.518;9.124;2023-04-03T15:47:01;6.90;93.70
31735;DHT22;18313;48.518;9.124;2023-04-03T15:49:29;6.80;94.30
31735;DHT22;18313;48.518;9.124;2023-04-03T15:51:57;6.70;94.40
31735;DHT22;18313;48.518;9.124;2023-04-03T15:54:25;6.80;94.60
31735;DHT22;18313;48.518;9.124;2023-04-03T15:56:52;6.80;94.30
31735;DHT22;18313;48.518;9.124;2023-04-03T15:59:21;6.80;93.90
31735;DHT22;18313;48.518;9.124;2023-04-03T16:01:49;6.80;95.10
31735;DHT22;18313;48.518;9.124;2023-04-03T16:04:18;6.80;94.90
31735;DHT22;18313;48.518;9.124;2023-04-03T16:06:46;6.80;95.20
31735;DHT22;18313;48.518;9.124;2023-04-03T16:09:13;6.90;95.60
31735;DHT22;18313;48.518;9.124;2023-04-03T16:11:41;6.90;94.30
31735;DHT22;18313;48.518;9.124;2023-04-03T16:14:08;6.80;94.80
31735;DHT22;18313;48.518;9.124;2023-04-03T16:16:36;6.70;95.20
31735;DHT22;18313;48.518;9.124;2023-04-03T16:19:04;6.80;95.80
31735;DHT22;18313;48.518;9.124;2023-04-03T16:21:32;6.80;94.60
31735;DHT22;18313;48.518;9.124;2023-04-03T16:23:59;6.80;94.00
31735;DHT22;18313;48.518;9.124;2023-04-03T16:26:27;6.80;93.80
31735;DHT22;18313;48.518;9.124;2023-04-03T16:28:55;6.80;95.10
31735;DHT22;18313;48.518;9.124;2023-04-03T16:31:23;6.90;94.00
31735;DHT22;18313;48.518;9.124;2023-04-03T16:33:51;6.80;94.30
31735;DHT22;18313;48.518;9.124;2023-04-03T16:36:18;6.80;95.10
31735;DHT22;18313;48.518;9.124;2023-04-03T16:38:45;6.90;94.00
31735;DHT22;18313;48.518;9.124;2023-04-03T16:41:12;6.70;93.70
31735;DHT22;18313;48.518;9.124;2023-04-03T16:43:40;6.70;94.50
31735;DHT22;18313;48.518;9.124;2023-04-03T16:46:07;6.50;94.30
31735;DHT22;18313;48.518;9.124;2023-04-03T16:48:34;6.50;95.00
31735;DHT22;18313;48.518;9.124;2023-04-03T16:51:02;6.50;95.00
31735;DHT22;18313;48.518;9.124;2023-04-03T16:53:29;6.50;95.50
31735;DHT22;18313;48.518;9.124;2023-04-03T16:55:58;6.60;94.40
31735;DHT22;18313;48.518;9.124;2023-04-03T16:58:26;6.70;95.10
31735;DHT22;18313;48.518;9.124;2023-04-03T17:00:53;6.70;94.40
31735;DHT22;18313;48.518;9.124;2023-04-03T17:03:21;6.70;94.10
31735;DHT22;18313;48.518;9.124;2023-04-03T17:05:50;6.80;93.70
31735;DHT22;18313;48.518;9.124;2023-04-03T17:08:17;6.60;94.00
31735;DHT22;18313;48.518;9.124;2023-04-03T17:10:44;6.50;94.00
31735;DHT22;18313;48.518;9.124;2023-04-03T17:13:12;6.30;94.00
31735;DHT22;18313;48.518;9.124;2023-04-03T17:15:39;6.10;94.60
31735;DHT22;18313;48.518;9.124;2023-04-03T17:18:07;6.10;94.40
31735;DHT22;18313;48.518;9.124;2023-04-03T17:20:34;6.10;94.20
31735;DHT22;18313;48.518;9.124;2023-04-03T17:23:03;6.00;94.50